createdAt,value
2018-11-27T00:03:56.133Z,79.80
2018-11-27T00:07:59.892Z,79.90
2018-11-27T00:12:03.657Z,79.80
2018-11-27T00:16:07.344Z,79.90
2018-11-27T00:20:12.274Z,79.90
2018-11-27T00:24:15.961Z,80.00
2018-11-27T00:28:19.634Z,80.00
2018-11-27T00:32:23.360Z,80.00
2018-11-27T00:36:27.126Z,80.00
2018-11-27T00:40:30.899Z,79.90
2018-11-27T00:44:34.623Z,79.90
2018-11-27T00:48:38.289Z,80.60
2018-11-27T00:52:42.044Z,79.80
2018-11-27T00:56:45.781Z,79.70
2018-11-27T01:00:49.500Z,79.80
2018-11-27T01:04:53.233Z,79.50
2018-11-27T01:08:56.985Z,79.50
2018-11-27T01:13:01.528Z,79.60
2018-11-27T01:17:05.562Z,79.60
2018-11-27T01:21:09.288Z,79.70
2018-11-27T01:25:13.231Z,79.60
2018-11-27T01:29:16.927Z,79.70
2018-11-27T01:33:20.671Z,79.60
2018-11-27T01:37:24.418Z,79.70
2018-11-27T01:41:28.102Z,79.60
2018-11-27T01:45:31.847Z,79.80
2018-11-27T01:49:35.547Z,79.70
2018-11-27T01:58:05.651Z,80.40
2018-11-27T02:02:09.390Z,79.70
2018-11-27T02:06:13.113Z,79.60
2018-11-27T02:10:16.870Z,79.50
2018-11-27T02:14:20.538Z,79.50
2018-11-27T02:18:24.214Z,79.60
2018-11-27T02:22:27.863Z,79.30
2018-11-27T02:26:31.576Z,79.30
2018-11-27T02:30:35.593Z,79.30
2018-11-27T02:34:39.338Z,79.10
2018-11-27T02:38:43.034Z,79.00
2018-11-27T02:42:46.719Z,78.90
2018-11-27T02:46:50.408Z,78.70
2018-11-27T02:50:54.086Z,78.70
2018-11-27T02:54:57.778Z,78.80
2018-11-27T02:59:01.543Z,78.70
2018-11-27T03:03:05.668Z,78.80
2018-11-27T03:07:09.433Z,78.70
2018-11-27T03:15:01.914Z,78.10
2018-11-27T03:19:05.725Z,78.70
2018-11-27T03:24:14.783Z,78.20
2018-11-27T03:28:18.463Z,78.80
2018-11-27T03:32:22.348Z,78.80
2018-11-27T03:36:26.003Z,78.70
2018-11-27T03:40:29.845Z,78.70
2018-11-27T03:44:33.546Z,78.70
2018-11-27T03:48:37.262Z,78.70
2018-11-27T03:52:40.965Z,78.70
2018-11-27T03:56:44.659Z,78.70
2018-11-27T04:00:48.402Z,78.70
2018-11-27T04:04:52.142Z,78.80
2018-11-27T04:08:55.863Z,78.90
2018-11-27T04:12:59.734Z,79.10
2018-11-27T04:17:03.511Z,79.20
2018-11-27T04:21:07.342Z,79.30
2018-11-27T04:25:12.244Z,79.20
2018-11-27T04:40:37.521Z,78.80
2018-11-27T04:44:41.266Z,79.40
2018-11-27T04:48:44.993Z,79.50
2018-11-27T04:52:48.807Z,79.50
2018-11-27T05:01:09.709Z,78.90
2018-11-27T05:06:52.486Z,78.90
2018-11-27T05:12:43.773Z,78.90
2018-11-27T05:16:47.471Z,79.60
2018-11-27T05:20:51.202Z,79.60
2018-11-27T05:24:54.930Z,79.70
2018-11-27T05:36:33.222Z,79.20
2018-11-27T05:40:36.942Z,79.90
2018-11-27T05:44:40.619Z,79.90
2018-11-27T05:49:01.693Z,79.30
2018-11-27T05:53:06.207Z,79.30
2018-11-27T05:57:09.991Z,80.00
2018-11-27T06:01:13.697Z,79.90
2018-11-27T06:05:18.581Z,79.90
2018-11-27T06:09:22.412Z,79.90
2018-11-27T06:13:26.160Z,79.90
2018-11-27T06:17:29.914Z,79.90
2018-11-27T06:21:33.643Z,79.90
2018-11-27T06:34:23.691Z,79.40
2018-11-27T06:55:33.298Z,79.50
2018-11-27T07:03:38.647Z,79.70
2018-11-27T08:07:27.734Z,79.80
2018-11-27T08:11:31.405Z,80.50
2018-11-27T08:15:35.166Z,80.30
2018-11-27T08:19:38.895Z,80.30
2018-11-27T08:23:42.605Z,80.40
2018-11-27T08:27:46.358Z,80.40
2018-11-27T08:31:50.096Z,80.50
2018-11-27T08:37:21.722Z,79.90
2018-11-27T08:41:25.385Z,80.50
2018-11-27T08:50:19.234Z,80.00
2018-11-27T09:00:22.292Z,80.10
2018-11-27T10:07:59.200Z,80.80
2018-11-27T10:12:02.921Z,81.40
2018-11-27T10:16:06.834Z,81.10
2018-11-27T10:20:13.221Z,80.90
2018-11-27T10:24:16.938Z,81.50
2018-11-27T10:28:20.623Z,80.70
2018-11-27T10:32:24.310Z,80.60
2018-11-27T10:36:28.011Z,80.80
2018-11-27T10:40:31.717Z,80.80
2018-11-27T10:44:35.770Z,80.50
2018-11-27T10:48:39.484Z,80.60
2018-11-27T10:52:45.173Z,80.20
2018-11-27T11:01:24.061Z,79.70
2018-11-27T11:08:33.150Z,79.90
2018-11-27T11:12:36.883Z,80.50
2018-11-27T11:20:32.778Z,79.80
2018-11-27T11:30:46.106Z,79.80
2018-11-27T11:34:50.030Z,80.50
2018-11-27T12:18:09.253Z,79.70
2018-11-27T12:24:20.774Z,79.50
2018-11-27T12:47:26.803Z,79.70
2018-11-27T12:51:30.506Z,81.40
2018-11-27T12:55:34.398Z,82.30
2018-11-27T12:59:38.086Z,82.60
2018-11-27T13:03:41.843Z,83.30
2018-11-27T13:07:45.559Z,83.50
2018-11-27T13:11:49.293Z,83.00
2018-11-27T13:15:52.977Z,83.10
2018-11-27T13:19:56.744Z,83.80
2018-11-27T13:24:00.431Z,83.90
2018-11-27T13:28:04.198Z,83.90
2018-11-27T13:32:08.704Z,83.40
2018-11-27T13:36:12.455Z,83.40
2018-11-27T13:40:16.219Z,83.30
2018-11-27T13:44:19.864Z,83.90
2018-11-27T13:48:23.623Z,83.20
2018-11-27T13:52:27.411Z,83.80
2018-11-27T14:03:01.804Z,83.50
2018-11-27T14:07:05.515Z,83.40
2018-11-27T14:11:09.300Z,84.10
2018-11-27T14:15:14.601Z,84.00
2018-11-27T14:19:18.378Z,83.90
2018-11-27T14:23:22.132Z,83.50
2018-11-27T14:27:25.863Z,84.20
2018-11-27T14:31:29.735Z,83.60
2018-11-27T14:35:40.062Z,84.30
2018-11-27T14:39:43.788Z,83.70
2018-11-27T14:43:47.590Z,84.40
2018-11-27T14:47:53.834Z,84.40
2018-11-27T14:51:57.511Z,83.60
2018-11-27T14:56:01.231Z,83.70
2018-11-27T15:00:06.117Z,83.60
2018-11-27T15:04:09.854Z,83.50
2018-11-27T15:08:14.138Z,84.00
2018-11-27T15:12:17.898Z,84.20
2018-11-27T15:16:21.660Z,84.20
2018-11-27T15:28:51.821Z,83.30
2018-11-27T15:32:56.719Z,83.30
2018-11-27T15:37:00.493Z,82.10
2018-11-27T15:41:04.241Z,81.40
2018-11-27T15:45:09.876Z,81.00
2018-11-27T15:49:13.667Z,80.70
2018-11-27T15:53:17.425Z,81.00
2018-11-27T15:57:21.170Z,80.30
2018-11-27T16:01:24.869Z,80.20
2018-11-27T16:05:28.683Z,80.20
2018-11-27T16:09:40.089Z,80.10
2018-11-27T16:13:44.058Z,80.00
2018-11-27T16:17:50.650Z,79.90
2018-11-27T16:21:58.218Z,79.90
2018-11-27T16:26:01.998Z,79.70
2018-11-27T16:30:13.209Z,79.60
2018-11-27T16:34:16.943Z,79.50
2018-11-27T16:38:20.656Z,79.30
2018-11-27T16:42:24.370Z,79.30
2018-11-27T16:46:28.062Z,79.00
2018-11-27T16:50:31.766Z,79.20
2018-11-27T16:54:35.517Z,79.20
2018-11-27T16:58:39.209Z,79.20
2018-11-27T17:02:42.904Z,79.10
2018-11-27T17:06:46.620Z,79.10
2018-11-27T17:10:50.324Z,79.20
2018-11-27T17:14:54.046Z,79.20
2018-11-27T17:18:57.770Z,79.00
2018-11-27T17:23:03.501Z,79.20
2018-11-27T17:27:07.918Z,79.10
2018-11-27T17:31:13.812Z,79.10
2018-11-27T17:35:17.530Z,79.20
2018-11-27T17:39:21.264Z,79.20
2018-11-27T17:43:25.043Z,79.00
2018-11-27T17:47:28.719Z,79.00
2018-11-27T17:51:32.453Z,78.90
2018-11-27T17:55:36.235Z,79.90
2018-11-27T17:59:40.030Z,78.80
2018-11-27T18:03:43.778Z,78.80
2018-11-27T18:07:47.482Z,79.00
2018-11-27T18:11:51.210Z,78.90
2018-11-27T18:15:54.963Z,78.90
2018-11-27T18:19:58.702Z,79.00
2018-11-27T18:24:02.535Z,78.90
2018-11-27T18:28:06.547Z,78.90
2018-11-27T18:32:10.404Z,78.90
2018-11-27T18:39:03.598Z,78.30
2018-11-27T18:43:07.546Z,79.00
2018-11-27T18:47:11.397Z,79.00
2018-11-27T18:51:15.292Z,79.00
2018-11-27T18:55:19.180Z,79.10
2018-11-27T18:59:23.221Z,79.10
2018-11-27T19:03:26.910Z,79.10
2018-11-27T19:07:30.601Z,79.10
2018-11-27T19:11:34.441Z,79.10
2018-11-27T19:51:31.001Z,78.90
2018-11-27T19:55:48.630Z,79.10
2018-11-27T19:59:52.479Z,80.70
2018-11-27T20:03:56.456Z,82.00
2018-11-27T20:08:00.382Z,82.40
2018-11-27T20:12:04.342Z,82.00
2018-11-27T20:16:08.884Z,81.10
2018-11-27T20:20:13.921Z,80.30
2018-11-27T20:24:17.578Z,79.70
2018-11-27T20:28:21.291Z,79.80
2018-11-27T20:32:25.026Z,79.20
2018-11-27T20:36:28.750Z,79.20
2018-11-27T20:40:32.450Z,80.10
2018-11-27T20:45:37.627Z,78.80
2018-11-27T20:49:41.270Z,79.50
2018-11-27T20:53:44.978Z,79.50
2018-11-27T20:57:52.358Z,79.70
2018-11-27T21:30:58.933Z,79.90
2018-11-27T21:53:00.851Z,78.80
2018-11-27T22:10:17.925Z,78.90
2018-11-27T22:21:06.281Z,78.70
2018-11-27T22:25:11.742Z,79.40
2018-11-27T22:42:44.991Z,78.30
2018-11-27T22:46:48.677Z,79.00
2018-11-27T22:50:52.391Z,79.20
2018-11-27T23:20:24.784Z,78.50
2018-11-27T23:24:28.546Z,79.20
